createdAt,value
2019-03-15T00:00:37.629Z,3.30
2019-03-15T00:03:07.086Z,3.20
2019-03-15T00:05:36.149Z,3.20
2019-03-15T00:08:07.227Z,3.20
2019-03-15T00:10:36.147Z,3.20
2019-03-15T00:13:05.389Z,3.10
2019-03-15T00:15:34.544Z,3.10
2019-03-15T00:18:04.599Z,3.00
2019-03-15T00:20:33.674Z,3.00
2019-03-15T00:23:03.047Z,3.00
2019-03-15T00:25:32.239Z,3.00
2019-03-15T00:28:01.220Z,2.90
2019-03-15T00:30:30.333Z,2.90
2019-03-15T00:32:59.500Z,2.90
2019-03-15T00:38:23.938Z,2.90
2019-03-15T00:40:54.159Z,3.00
2019-03-15T00:43:23.193Z,3.00
2019-03-15T00:45:52.611Z,3.00
2019-03-15T00:48:23.500Z,2.90
2019-03-15T00:50:55.421Z,2.80
2019-03-15T00:53:25.903Z,2.80
2019-03-15T00:55:55.900Z,2.70
2019-03-15T00:58:25.272Z,2.50
2019-03-15T01:00:57.104Z,2.40
2019-03-15T01:03:26.400Z,2.40
2019-03-15T01:05:55.267Z,2.30
2019-03-15T01:08:24.339Z,2.30
2019-03-15T01:10:53.366Z,2.20
2019-03-15T01:13:28.786Z,2.20
2019-03-15T01:15:57.723Z,2.30
2019-03-15T01:18:26.851Z,2.40
2019-03-15T01:20:56.119Z,2.50
2019-03-15T01:23:25.185Z,2.60
2019-03-15T01:25:54.496Z,2.60
2019-03-15T01:28:27.201Z,2.60
2019-03-15T01:30:58.990Z,2.70
2019-03-15T01:33:28.495Z,2.70
2019-03-15T01:35:57.537Z,2.70
2019-03-15T01:38:29.206Z,2.60
2019-03-15T01:40:58.494Z,2.60
2019-03-15T01:43:27.539Z,2.60
2019-03-15T01:45:58.777Z,2.60
2019-03-15T01:48:29.142Z,2.60
2019-03-15T01:50:58.208Z,2.60
2019-03-15T01:53:27.524Z,2.60
2019-03-15T01:55:56.868Z,2.60
2019-03-15T01:58:26.266Z,2.60
2019-03-15T02:00:55.475Z,2.60
2019-03-15T02:03:24.602Z,2.70
2019-03-15T02:05:55.193Z,2.70
2019-03-15T02:08:24.538Z,2.70
2019-03-15T02:10:53.732Z,2.70
2019-03-15T02:13:25.121Z,2.70
2019-03-15T02:15:54.249Z,2.70
2019-03-15T02:18:23.360Z,2.70
2019-03-15T02:20:53.298Z,2.70
2019-03-15T02:23:25.841Z,2.70
2019-03-15T02:29:00.585Z,2.70
2019-03-15T02:31:33.750Z,2.70
2019-03-15T02:34:08.828Z,2.60
2019-03-15T02:36:47.128Z,2.60
2019-03-15T02:39:21.877Z,2.60
2019-03-15T02:41:59.136Z,2.60
2019-03-15T02:44:32.330Z,2.50
2019-03-15T02:47:01.579Z,2.40
2019-03-15T02:49:32.884Z,2.40
2019-03-15T02:52:02.453Z,2.30
2019-03-15T02:54:31.368Z,2.30
2019-03-15T02:57:05.198Z,2.40
2019-03-15T02:59:35.223Z,2.40
2019-03-15T03:02:06.231Z,2.50
2019-03-15T03:04:35.089Z,2.50
2019-03-15T03:07:08.014Z,2.60
2019-03-15T03:09:36.827Z,2.60
2019-03-15T03:12:07.497Z,2.60
2019-03-15T03:14:36.638Z,2.60
2019-03-15T03:17:09.584Z,2.70
2019-03-15T03:19:45.587Z,2.70
2019-03-15T03:22:18.438Z,2.70
2019-03-15T03:24:54.089Z,2.80
2019-03-15T03:27:26.668Z,2.70
2019-03-15T03:30:00.870Z,2.70
2019-03-15T03:32:34.360Z,2.70
2019-03-15T03:35:03.645Z,2.70
2019-03-15T03:37:36.082Z,2.80
2019-03-15T03:40:08.380Z,2.80
2019-03-15T03:42:41.976Z,2.80
2019-03-15T03:45:10.746Z,2.80
2019-03-15T03:47:39.836Z,2.80
2019-03-15T03:50:10.857Z,2.80
2019-03-15T03:52:41.732Z,2.80
2019-03-15T03:55:12.185Z,2.80
2019-03-15T03:57:44.661Z,2.90
2019-03-15T04:00:21.575Z,2.90
2019-03-15T04:02:53.425Z,2.90
2019-03-15T04:05:24.746Z,2.80
2019-03-15T04:07:54.246Z,2.80
2019-03-15T04:10:28.043Z,2.70
2019-03-15T04:12:59.165Z,2.70
2019-03-15T04:15:28.705Z,2.70
2019-03-15T04:18:01.858Z,2.70
2019-03-15T04:20:31.202Z,2.80
2019-03-15T04:23:02.402Z,2.80
2019-03-15T04:25:40.348Z,2.80
2019-03-15T04:28:08.411Z,2.80
2019-03-15T04:30:41.414Z,2.80
2019-03-15T04:33:10.532Z,2.90
2019-03-15T04:35:39.737Z,3.00
2019-03-15T04:38:11.783Z,3.00
2019-03-15T04:40:43.416Z,3.10
2019-03-15T04:43:13.551Z,3.10
2019-03-15T04:45:43.211Z,3.10
2019-03-15T04:48:14.761Z,3.10
2019-03-15T04:50:43.995Z,3.10
2019-03-15T04:53:13.225Z,3.10
2019-03-15T04:55:42.380Z,3.10
2019-03-15T04:58:14.288Z,3.10
2019-03-15T05:00:47.151Z,3.10
2019-03-15T05:03:17.031Z,3.10
2019-03-15T05:05:46.296Z,3.10
2019-03-15T05:08:16.680Z,3.10
2019-03-15T05:10:45.601Z,3.10
2019-03-15T05:13:17.064Z,3.20
2019-03-15T05:15:46.438Z,3.20
2019-03-15T05:18:15.880Z,3.20
2019-03-15T05:20:50.478Z,3.30
2019-03-15T05:23:20.143Z,3.30
2019-03-15T05:25:50.366Z,3.30
2019-03-15T05:28:19.431Z,3.40
2019-03-15T05:30:56.099Z,3.40
2019-03-15T05:33:24.921Z,3.50
2019-03-15T05:36:03.783Z,3.40
2019-03-15T05:38:35.321Z,3.50
2019-03-15T05:41:12.466Z,3.50
2019-03-15T05:44:04.540Z,3.50
2019-03-15T05:46:36.195Z,3.50
2019-03-15T05:49:19.084Z,3.60
2019-03-15T05:51:51.303Z,3.60
2019-03-15T05:54:26.928Z,3.60
2019-03-15T05:57:05.137Z,3.70
2019-03-15T05:59:42.275Z,3.70
2019-03-15T06:02:11.211Z,3.70
2019-03-15T06:04:40.105Z,3.80
2019-03-15T06:07:13.417Z,3.80
2019-03-15T06:09:49.273Z,3.90
2019-03-15T06:12:18.241Z,3.90
2019-03-15T06:14:48.159Z,4.00
2019-03-15T06:17:17.352Z,4.00
2019-03-15T06:19:46.289Z,4.10
2019-03-15T06:22:15.237Z,4.10
2019-03-15T06:24:45.250Z,4.20
2019-03-15T06:27:17.976Z,4.30
2019-03-15T06:29:46.937Z,4.40
2019-03-15T06:32:15.810Z,4.50
2019-03-15T06:34:44.665Z,4.60
2019-03-15T06:37:17.584Z,4.70
2019-03-15T06:39:46.381Z,4.80
2019-03-15T06:42:15.281Z,4.70
2019-03-15T06:44:57.032Z,4.70
2019-03-15T06:47:16.746Z,4.70
2019-03-15T06:49:45.724Z,4.60
2019-03-15T06:52:16.149Z,4.60
2019-03-15T06:54:46.574Z,4.70
2019-03-15T06:57:15.466Z,4.90
2019-03-15T06:59:46.814Z,5.00
2019-03-15T07:02:19.529Z,5.10
2019-03-15T07:04:51.424Z,5.20
2019-03-15T07:07:25.410Z,5.30
2019-03-15T07:09:56.929Z,5.40
2019-03-15T07:12:35.858Z,5.50
2019-03-15T07:15:08.260Z,5.60
2019-03-15T07:17:37.204Z,5.80
2019-03-15T07:20:09.877Z,5.90
2019-03-15T07:22:41.328Z,6.10
2019-03-15T07:25:10.720Z,6.20
2019-03-15T07:27:43.267Z,6.40
2019-03-15T07:30:23.461Z,6.60
2019-03-15T07:32:56.483Z,6.90
2019-03-15T07:35:27.713Z,7.20
2019-03-15T07:38:02.424Z,7.40
2019-03-15T07:40:29.058Z,7.50
2019-03-15T07:43:02.027Z,7.50
2019-03-15T07:45:28.393Z,7.70
2019-03-15T07:47:59.933Z,8.00
2019-03-15T07:50:28.842Z,8.40
2019-03-15T07:53:00.268Z,8.50
2019-03-15T07:55:29.267Z,8.70
2019-03-15T07:58:00.812Z,8.50
2019-03-15T08:00:29.700Z,8.50
2019-03-15T08:03:05.683Z,8.40
2019-03-15T08:05:34.983Z,8.20
2019-03-15T08:08:03.847Z,7.90
2019-03-15T08:10:36.303Z,7.80
2019-03-15T08:13:05.212Z,7.70
2019-03-15T08:15:34.204Z,7.60
2019-03-15T08:18:03.095Z,7.40
2019-03-15T08:20:32.089Z,7.30
2019-03-15T08:23:04.865Z,7.30
2019-03-15T08:25:37.357Z,7.20
2019-03-15T08:28:09.593Z,7.20
2019-03-15T08:30:37.681Z,7.30
2019-03-15T08:33:11.913Z,7.50
2019-03-15T08:35:40.887Z,7.80
2019-03-15T08:38:09.882Z,8.10
2019-03-15T08:40:43.274Z,8.20
2019-03-15T08:43:14.894Z,8.30
2019-03-15T08:45:43.818Z,8.40
2019-03-15T08:48:15.269Z,8.40
2019-03-15T08:50:44.160Z,8.60
2019-03-15T08:53:13.152Z,8.60
2019-03-15T08:55:44.518Z,8.40
2019-03-15T08:58:16.639Z,8.50
2019-03-15T09:00:43.917Z,8.50
2019-03-15T09:03:12.810Z,8.40
2019-03-15T09:05:41.802Z,8.30
2019-03-15T09:08:10.690Z,8.30
2019-03-15T09:10:39.683Z,8.40
2019-03-15T09:13:08.675Z,8.50
2019-03-15T09:15:40.056Z,8.40
2019-03-15T09:18:09.019Z,8.30
2019-03-15T09:20:40.485Z,8.30
2019-03-15T09:23:14.081Z,8.20
2019-03-15T09:25:49.585Z,8.10
2019-03-15T09:28:16.269Z,8.10
2019-03-15T09:30:45.346Z,8.10
2019-03-15T09:33:15.183Z,8.10
2019-03-15T09:35:44.160Z,8.10
2019-03-15T09:38:16.314Z,8.10
2019-03-15T09:40:49.097Z,7.80
2019-03-15T09:43:18.098Z,7.80
2019-03-15T09:45:46.978Z,7.70
2019-03-15T09:48:17.508Z,7.60
2019-03-15T09:50:51.756Z,7.50
2019-03-15T09:53:21.123Z,7.40
2019-03-15T09:55:50.014Z,7.40
2019-03-15T09:58:18.905Z,7.40
2019-03-15T10:00:50.561Z,7.40
2019-03-15T10:03:22.703Z,7.50
2019-03-15T10:05:57.080Z,7.60
2019-03-15T10:08:25.837Z,7.60
2019-03-15T10:10:55.586Z,7.80
2019-03-15T10:13:27.000Z,7.80
2019-03-15T10:15:55.972Z,7.90
2019-03-15T10:18:24.977Z,7.90
2019-03-15T10:20:53.865Z,7.90
2019-03-15T10:23:22.858Z,8.00
2019-03-15T10:25:51.850Z,8.10
2019-03-15T10:28:20.738Z,7.90
2019-03-15T10:30:49.731Z,8.00
2019-03-15T10:33:23.160Z,8.10
2019-03-15T10:35:52.119Z,8.00
2019-03-15T10:38:21.009Z,7.90
2019-03-15T10:40:56.460Z,7.80
2019-03-15T10:43:25.383Z,7.80
2019-03-15T10:46:06.100Z,7.70
2019-03-15T10:48:32.031Z,7.80
2019-03-15T10:51:00.923Z,7.80
2019-03-15T10:53:33.501Z,7.90
2019-03-15T10:56:04.334Z,7.90
2019-03-15T10:58:36.717Z,7.90
2019-03-15T11:01:09.691Z,7.90
2019-03-15T11:03:42.593Z,8.00
2019-03-15T11:06:11.463Z,7.90
2019-03-15T11:08:40.464Z,7.90
2019-03-15T11:11:12.025Z,8.00
2019-03-15T11:13:40.899Z,8.10
2019-03-15T11:16:21.771Z,8.20
2019-03-15T11:18:55.098Z,8.10
2019-03-15T11:21:26.671Z,8.10
2019-03-15T11:23:55.610Z,8.00
2019-03-15T11:26:24.407Z,8.10
2019-03-15T11:28:56.818Z,8.20
2019-03-15T11:31:28.278Z,8.20
2019-03-15T11:34:00.038Z,8.30
2019-03-15T11:36:27.635Z,8.20
2019-03-15T11:38:59.087Z,8.00
2019-03-15T11:41:29.921Z,7.90
2019-03-15T11:44:00.350Z,8.00
2019-03-15T11:46:35.790Z,7.90
2019-03-15T11:49:04.683Z,7.90
2019-03-15T11:51:33.573Z,8.00
2019-03-15T11:54:06.719Z,8.10
2019-03-15T11:56:41.181Z,8.10
2019-03-15T11:59:11.095Z,8.20
2019-03-15T12:01:41.012Z,8.10
2019-03-15T12:04:09.928Z,8.00
2019-03-15T12:06:38.832Z,8.00
2019-03-15T12:09:11.457Z,8.10
2019-03-15T12:11:40.361Z,8.00
2019-03-15T12:14:09.356Z,8.10
2019-03-15T12:16:39.189Z,8.30
2019-03-15T12:19:08.153Z,8.30
2019-03-15T12:21:37.043Z,8.40
2019-03-15T12:24:05.814Z,8.50
2019-03-15T12:26:40.112Z,8.30
2019-03-15T12:29:07.810Z,8.30
2019-03-15T12:31:40.290Z,8.30
2019-03-15T12:34:09.177Z,8.20
2019-03-15T12:36:44.186Z,8.20
2019-03-15T12:39:17.754Z,8.10
2019-03-15T12:41:49.257Z,8.10
2019-03-15T12:44:21.836Z,8.00
2019-03-15T12:46:55.043Z,7.90
2019-03-15T12:49:25.713Z,7.90
2019-03-15T12:51:54.750Z,7.80
2019-03-15T12:54:25.894Z,7.90
2019-03-15T12:56:58.675Z,7.80
2019-03-15T12:59:28.077Z,7.80
2019-03-15T13:01:58.708Z,7.80
2019-03-15T13:04:27.619Z,7.80
2019-03-15T13:06:56.485Z,7.90
2019-03-15T13:09:27.952Z,7.90
2019-03-15T13:11:56.930Z,7.90
2019-03-15T13:14:25.922Z,8.00
2019-03-15T13:16:54.812Z,8.00
2019-03-15T13:19:28.476Z,8.00
2019-03-15T13:21:58.211Z,7.90
2019-03-15T13:24:26.969Z,8.00
2019-03-15T13:27:06.999Z,7.90
2019-03-15T13:29:28.468Z,7.80
2019-03-15T13:31:59.928Z,7.80
2019-03-15T13:34:29.021Z,7.60
2019-03-15T13:37:01.475Z,7.50
2019-03-15T13:39:34.093Z,7.50
2019-03-15T13:42:03.065Z,7.50
2019-03-15T13:44:36.891Z,7.50
2019-03-15T13:47:05.865Z,7.50
2019-03-15T13:49:34.778Z,7.60
2019-03-15T13:52:06.116Z,7.60
2019-03-15T13:54:35.003Z,7.60
2019-03-15T13:57:03.889Z,7.60
2019-03-15T13:59:35.433Z,7.60
2019-03-15T14:02:07.848Z,7.50
2019-03-15T14:04:37.003Z,7.40
2019-03-15T14:07:05.891Z,7.40
2019-03-15T14:09:36.645Z,7.30
2019-03-15T14:12:09.524Z,7.30
2019-03-15T14:14:42.392Z,7.10
2019-03-15T14:17:20.091Z,7.00
2019-03-15T14:19:50.005Z,6.90
2019-03-15T14:22:18.895Z,6.80
2019-03-15T14:24:47.782Z,6.70
2019-03-15T14:27:17.637Z,6.60
2019-03-15T14:29:46.693Z,6.50
2019-03-15T14:32:16.602Z,6.50
2019-03-15T14:34:45.410Z,6.60
2019-03-15T14:37:15.535Z,6.70
2019-03-15T14:39:44.641Z,6.70
2019-03-15T14:42:13.778Z,6.80
2019-03-15T14:44:42.693Z,6.80
2019-03-15T14:47:15.315Z,6.70
2019-03-15T14:49:47.640Z,6.70
2019-03-15T14:52:16.529Z,6.60
2019-03-15T14:54:45.419Z,6.40
2019-03-15T14:57:14.307Z,6.40
2019-03-15T14:59:43.197Z,6.40
2019-03-15T15:02:12.191Z,6.30
2019-03-15T15:04:41.084Z,6.30
2019-03-15T15:07:10.077Z,6.20
2019-03-15T15:09:43.605Z,6.20
2019-03-15T15:12:10.411Z,6.20
2019-03-15T15:14:39.404Z,6.10
2019-03-15T15:17:11.128Z,6.10
2019-03-15T15:19:39.600Z,6.10
2019-03-15T15:22:08.378Z,6.10
2019-03-15T15:24:41.217Z,6.10
2019-03-15T15:27:14.299Z,6.20
2019-03-15T15:29:43.189Z,6.10
2019-03-15T15:32:12.255Z,6.10
2019-03-15T15:34:41.174Z,6.10
2019-03-15T15:37:10.066Z,6.10
2019-03-15T15:39:39.062Z,6.00
2019-03-15T15:42:07.946Z,6.10
2019-03-15T15:44:43.631Z,6.10
2019-03-15T15:47:14.327Z,6.00
2019-03-15T15:49:43.218Z,5.90
2019-03-15T15:52:15.587Z,5.90
2019-03-15T15:54:47.591Z,5.90
2019-03-15T15:57:17.372Z,5.80
2019-03-15T15:59:48.442Z,5.80
2019-03-15T16:02:18.514Z,5.80
2019-03-15T16:04:47.518Z,5.80
2019-03-15T16:07:16.506Z,5.70
2019-03-15T16:09:45.400Z,5.70
2019-03-15T16:12:15.805Z,5.70
2019-03-15T16:14:44.711Z,5.70
2019-03-15T16:17:14.756Z,5.60
2019-03-15T16:19:45.578Z,5.60
2019-03-15T16:22:14.556Z,5.60
2019-03-15T16:24:43.547Z,5.60
2019-03-15T16:27:13.462Z,5.60
2019-03-15T16:29:42.357Z,5.60
2019-03-15T16:32:11.250Z,5.60
2019-03-15T16:34:41.135Z,5.60
2019-03-15T16:37:10.255Z,5.60
2019-03-15T16:39:39.354Z,5.50
2019-03-15T16:42:13.559Z,5.50
2019-03-15T16:44:42.451Z,5.50
2019-03-15T16:47:11.444Z,5.50
2019-03-15T16:49:40.439Z,5.50
2019-03-15T16:52:09.327Z,5.50
2019-03-15T16:54:38.321Z,5.50
2019-03-15T16:57:07.204Z,5.40
2019-03-15T16:59:36.098Z,5.40
2019-03-15T17:02:04.996Z,5.40
2019-03-15T17:04:33.887Z,5.40
2019-03-15T17:07:09.306Z,5.40
2019-03-15T17:09:38.121Z,5.40
2019-03-15T17:12:14.967Z,5.40
2019-03-15T17:14:44.319Z,5.40
2019-03-15T17:17:13.285Z,5.40
2019-03-15T17:19:42.269Z,5.40
2019-03-15T17:22:11.159Z,5.40
2019-03-15T17:24:40.049Z,5.40
2019-03-15T17:27:08.940Z,5.40
2019-03-15T17:29:37.829Z,5.40
2019-03-15T17:32:07.845Z,5.40
2019-03-15T17:34:36.835Z,5.40
2019-03-15T17:37:11.314Z,5.40
2019-03-15T17:39:36.301Z,5.50
2019-03-15T17:42:06.247Z,5.40
2019-03-15T17:44:35.213Z,5.40
2019-03-15T17:47:07.607Z,5.40
2019-03-15T17:49:36.526Z,5.40
2019-03-15T17:52:07.342Z,5.40
2019-03-15T17:54:36.255Z,5.40
2019-03-15T17:57:06.167Z,5.40
2019-03-15T17:59:35.060Z,5.40
2019-03-15T18:02:04.971Z,5.40
2019-03-15T18:04:36.417Z,5.40
2019-03-15T18:07:13.091Z,5.40
2019-03-15T18:09:42.976Z,5.30
2019-03-15T18:12:14.555Z,5.30
2019-03-15T18:14:44.999Z,5.30
2019-03-15T18:17:16.740Z,5.30
2019-03-15T18:19:44.400Z,5.30
2019-03-15T18:22:14.005Z,5.30
2019-03-15T18:24:47.701Z,5.30
2019-03-15T18:27:15.737Z,5.30
2019-03-15T18:29:44.676Z,5.30
2019-03-15T18:32:16.224Z,5.30
2019-03-15T18:34:45.452Z,5.30
2019-03-15T18:37:15.406Z,5.30
2019-03-15T18:39:44.585Z,5.30
2019-03-15T18:42:13.524Z,5.30
2019-03-15T18:44:42.516Z,5.30
2019-03-15T18:47:11.404Z,5.30
2019-03-15T18:49:40.293Z,5.30
2019-03-15T18:52:09.184Z,5.30
2019-03-15T18:54:40.941Z,5.30
2019-03-15T18:57:10.958Z,5.30
2019-03-15T18:59:40.601Z,5.30
2019-03-15T19:02:13.262Z,5.30
2019-03-15T19:04:42.712Z,5.30
2019-03-15T19:07:11.637Z,5.30
2019-03-15T19:09:40.528Z,5.30
2019-03-15T19:12:09.604Z,5.20
2019-03-15T19:14:38.612Z,5.20
2019-03-15T19:17:07.504Z,5.20
2019-03-15T19:19:36.499Z,5.20
2019-03-15T19:22:06.413Z,5.20
2019-03-15T19:24:35.404Z,5.20
2019-03-15T19:27:04.294Z,5.20
2019-03-15T19:29:33.183Z,5.20
2019-03-15T19:32:02.077Z,5.20
2019-03-15T19:34:34.765Z,5.20
2019-03-15T19:37:03.743Z,5.20
2019-03-15T19:39:35.198Z,5.20
2019-03-15T19:42:04.084Z,5.20
2019-03-15T19:44:33.078Z,5.20
2019-03-15T19:47:02.991Z,5.20
2019-03-15T19:49:32.106Z,5.20
2019-03-15T19:52:03.591Z,5.20
2019-03-15T19:54:32.449Z,5.20
2019-03-15T19:57:01.313Z,5.20
2019-03-15T19:59:30.128Z,5.20
2019-03-15T20:02:01.925Z,5.20
2019-03-15T20:04:41.592Z,5.20
2019-03-15T20:07:13.606Z,5.10
2019-03-15T20:09:45.024Z,5.10
2019-03-15T20:12:14.007Z,5.10
2019-03-15T20:14:46.376Z,5.20
2019-03-15T20:17:17.676Z,5.10
2019-03-15T20:19:47.232Z,5.10
2019-03-15T20:22:16.039Z,5.10
2019-03-15T20:24:44.928Z,5.10
2019-03-15T20:27:16.583Z,5.10
2019-03-15T20:29:45.458Z,5.10
2019-03-15T20:32:20.794Z,5.10
2019-03-15T20:34:53.784Z,5.00
2019-03-15T20:37:23.488Z,5.00
2019-03-15T20:39:52.386Z,5.10
2019-03-15T20:42:25.470Z,5.10
2019-03-15T20:44:55.280Z,5.10
2019-03-15T20:47:24.273Z,5.10
2019-03-15T20:49:53.162Z,5.10
2019-03-15T20:52:24.621Z,5.10
2019-03-15T20:54:54.446Z,5.10
2019-03-15T20:57:27.137Z,5.00
2019-03-15T21:00:00.189Z,5.10
2019-03-15T21:02:36.964Z,5.00
2019-03-15T21:05:08.048Z,5.10
2019-03-15T21:07:36.897Z,5.10
2019-03-15T21:10:08.537Z,5.00
2019-03-15T21:12:39.899Z,5.00
2019-03-15T21:15:11.184Z,5.00
2019-03-15T21:17:41.230Z,5.00
2019-03-15T21:20:22.393Z,4.90
2019-03-15T21:22:49.794Z,4.90
2019-03-15T21:25:18.693Z,4.90
2019-03-15T21:27:54.572Z,4.90
2019-03-15T21:30:26.091Z,4.90
2019-03-15T21:32:54.982Z,4.90
2019-03-15T21:35:23.975Z,4.80
2019-03-15T21:38:00.240Z,4.80
2019-03-15T21:40:33.071Z,4.80
2019-03-15T21:43:02.736Z,4.70
2019-03-15T21:45:34.827Z,4.70
2019-03-15T21:48:07.031Z,4.70
2019-03-15T21:50:40.185Z,4.70
2019-03-15T21:53:20.149Z,4.70
2019-03-15T21:55:49.354Z,4.70
2019-03-15T21:58:18.558Z,4.70
2019-03-15T22:01:01.381Z,4.70
2019-03-15T22:03:18.333Z,4.70
2019-03-15T22:05:51.985Z,4.70
2019-03-15T22:08:23.513Z,4.70
2019-03-15T22:10:56.333Z,4.70
2019-03-15T22:13:25.201Z,4.70
2019-03-15T22:15:58.675Z,4.70
2019-03-15T22:18:30.070Z,4.70
2019-03-15T22:20:59.088Z,4.70
2019-03-15T22:23:28.999Z,4.70
2019-03-15T22:25:57.989Z,4.70
2019-03-15T22:28:27.269Z,4.70
2019-03-15T22:31:00.879Z,4.70
2019-03-15T22:33:30.929Z,4.70
2019-03-15T22:36:00.213Z,4.70
2019-03-15T22:38:35.873Z,4.70
2019-03-15T22:41:06.953Z,4.70
2019-03-15T22:43:36.217Z,4.70
2019-03-15T22:46:05.970Z,4.70
2019-03-15T22:48:43.322Z,4.80
2019-03-15T22:51:12.524Z,4.80
2019-03-15T22:53:45.962Z,4.80
2019-03-15T22:56:16.528Z,4.80
2019-03-15T22:58:45.378Z,4.80
2019-03-15T23:01:14.297Z,4.80
2019-03-15T23:03:43.186Z,4.80
2019-03-15T23:06:13.305Z,4.90
2019-03-15T23:08:42.194Z,4.80
2019-03-15T23:11:12.210Z,4.80
2019-03-15T23:13:41.100Z,4.80
2019-03-15T23:16:10.095Z,4.90
2019-03-15T23:18:38.982Z,4.90
2019-03-15T23:21:07.977Z,4.80
2019-03-15T23:23:36.865Z,4.80
2019-03-15T23:26:05.862Z,4.80
2019-03-15T23:28:35.677Z,4.90
2019-03-15T23:31:04.560Z,4.90
2019-03-15T23:33:33.449Z,4.80
2019-03-15T23:36:06.435Z,4.80
2019-03-15T23:38:35.343Z,4.80
2019-03-15T23:41:05.243Z,4.80
2019-03-15T23:43:34.239Z,4.80
2019-03-15T23:46:07.846Z,4.80
2019-03-15T23:48:36.014Z,4.80
2019-03-15T23:51:06.022Z,4.80
2019-03-15T23:53:35.015Z,4.70
2019-03-15T23:56:05.169Z,4.80
2019-03-15T23:58:34.023Z,4.70
